Weather History for Charles City, IA

Change the Weather History Date:

Saturday, November 23, 2013

  Actual Average Record
Temperature  
Mean Temperature 13 °F -  
Max Temperature 21 °F 38 °F 59 °F (2006)
Min Temperature 5 °F 23 °F -2 °F (1950)
Degree Days  
Heating Degree Days 52    
Moisture  
Dew Point 3 °F    
Average Humidity 68    
Maximum Humidity 78    
Minimum Humidity 53    
Precipitation  
Precipitation 0.00 in - - ()
Sea Level Pressure  
Sea Level Pressure 30.71 in    
Wind  
Wind Speed 16 mph (NW)    
Max Wind Speed 23 mph    
Max Gust Speed 32 mph    
Visibility 10 miles    
Events      
Averages and records for this station are not official NWS values.
T = Trace of Precipitation, MM = Missing Value Source: NWS Daily Summary

Daily Weather History Graph

Daily Weather History Graph

Search for Another Location

Airport:

Trip Planner

Search our weather history database for the weather conditions in past years. The results will help you decide how hot, cold, wet, or windy it might be!

Date:

Astronomy

Nov. 23, 2013 Rise Set
Actual Time 7:13 AM CST 4:40 PM CST
Civil Twilight 6:42 AM CST 5:11 PM CST
Nautical Twilight 6:07 AM CST 5:46 PM CST
Astronomical Twilight 5:33 AM CST 6:20 PM CST
Moon 10:12 PM CST (11/23) 11:27 AM CST (11/23)
Length of Visible Light 10h 29m
Length of Day
9h 26m
Waning Gibbous, 69% of the Moon is Illuminated
Nov 23
Waning Gibbous
Nov 25
Last Quarter
Dec 2
New
Dec 9
First Quarter
Dec 17
Full

Hourly Weather History & Observations

Time (CST) Temp. Windchill Dew Point Humidity Pressure Visibility Wind Dir Wind Speed Gust Speed Precip Events Conditions
12:15 AM 21.2 °F 6.0 °F 14.0 °F 74% 30.52 in 10.0 mi NNW 19.6 mph - N/A   Clear
12:35 AM 21.2 °F 6.4 °F 14.0 °F 74% 30.53 in 10.0 mi NNW 18.4 mph - N/A   Clear
12:55 AM 19.4 °F 2.8 °F 12.2 °F 74% 30.54 in 10.0 mi NNW 21.9 mph 27.6 mph N/A   Clear
1:15 AM 19.4 °F 5.5 °F 10.4 °F 68% 30.56 in 10.0 mi NW 15.0 mph 24.2 mph N/A   Clear
1:35 AM 17.6 °F 1.7 °F 8.6 °F 68% 30.56 in 10.0 mi NW 18.4 mph - N/A   Partly Cloudy
1:55 AM 17.6 °F 0.1 °F 6.8 °F 63% 30.57 in 10.0 mi NNW 23.0 mph 28.8 mph N/A   Partly Cloudy
2:15 AM 15.8 °F -0.2 °F 5.0 °F 62% 30.58 in 10.0 mi NNW 17.3 mph 32.2 mph N/A   Clear
2:35 AM 14.0 °F -4.3 °F 5.0 °F 67% 30.58 in 10.0 mi NNW 21.9 mph - N/A   Clear
2:55 AM 14.0 °F -2.5 °F 5.0 °F 67% 30.60 in 10.0 mi NNW 17.3 mph 24.2 mph N/A   Clear
3:15 AM 12.2 °F -3.7 °F 5.0 °F 73% 30.60 in 10.0 mi NNW 15.0 mph 23.0 mph N/A   Clear
3:35 AM 12.2 °F -4.8 °F 5.0 °F 73% 30.60 in 10.0 mi NNW 17.3 mph - N/A   Mostly Cloudy
3:55 AM 12.2 °F -7.1 °F 3.2 °F 67% 30.61 in 10.0 mi NNW 23.0 mph - N/A   Overcast
4:15 AM 12.2 °F -4.8 °F 3.2 °F 67% 30.62 in 10.0 mi NNW 17.3 mph 24.2 mph N/A   Partly Cloudy
4:35 AM 10.4 °F -7.2 °F 3.2 °F 73% 30.63 in 10.0 mi NNW 17.3 mph - N/A   Clear
4:55 AM 10.4 °F -6.0 °F 3.2 °F 73% 30.64 in 10.0 mi NNW 15.0 mph - N/A   Clear
5:15 AM 10.4 °F -6.6 °F 3.2 °F 73% 30.66 in 10.0 mi NNW 16.1 mph - N/A   Clear
5:35 AM 10.4 °F -6.6 °F 3.2 °F 73% 30.67 in 10.0 mi NNW 16.1 mph 23.0 mph N/A   Clear
5:55 AM 10.4 °F -6.6 °F 3.2 °F 73% 30.67 in 10.0 mi NNW 16.1 mph - N/A   Partly Cloudy
6:15 AM 10.4 °F -5.4 °F 1.4 °F 67% 30.68 in 10.0 mi NNW 13.8 mph - N/A   Partly Cloudy
6:35 AM 8.6 °F -10.0 °F 1.4 °F 73% 30.69 in 10.0 mi NNW 18.4 mph - N/A   Clear
6:55 AM 8.6 °F -7.0 °F 1.4 °F 73% 30.70 in 10.0 mi NW 12.7 mph 20.7 mph N/A   Clear
7:15 AM 8.6 °F -8.9 °F 1.4 °F 73% 30.71 in 10.0 mi NNW 16.1 mph - N/A   Clear
7:35 AM 8.6 °F -7.7 °F 1.4 °F 73% 30.72 in 10.0 mi NNW 13.8 mph - N/A   Clear
7:55 AM 8.6 °F -8.3 °F 1.4 °F 73% 30.73 in 10.0 mi NW 15.0 mph - N/A   Scattered Clouds
8:15 AM 8.6 °F -10.0 °F 1.4 °F 73% 30.74 in 10.0 mi NNW 18.4 mph - N/A   Scattered Clouds
8:35 AM 8.6 °F -10.5 °F 1.4 °F 73% 30.75 in 10.0 mi NNW 19.6 mph 26.5 mph N/A   Partly Cloudy
8:55 AM 10.4 °F -7.7 °F 1.4 °F 67% 30.76 in 10.0 mi NNW 18.4 mph 25.3 mph N/A   Scattered Clouds
9:15 AM 10.4 °F -8.6 °F 3.2 °F 73% 30.77 in 10.0 mi NNW 20.7 mph 26.5 mph N/A   Mostly Cloudy
9:35 AM 12.2 °F -4.8 °F 3.2 °F 67% 30.77 in 10.0 mi NNW 17.3 mph 25.3 mph N/A   Mostly Cloudy
9:55 AM 12.2 °F -6.3 °F 3.2 °F 67% 30.77 in 10.0 mi North 20.7 mph - N/A   Scattered Clouds
10:15 AM 12.2 °F -6.3 °F 3.2 °F 67% 30.77 in 10.0 mi NNW 20.7 mph - N/A   Partly Cloudy
10:35 AM 14.0 °F -3.4 °F 3.2 °F 62% 30.77 in 10.0 mi NNW 19.6 mph 26.5 mph N/A   Clear
10:55 AM 14.0 °F -2.5 °F 3.2 °F 62% 30.77 in 10.0 mi NNW 17.3 mph 25.3 mph N/A   Clear
11:15 AM 14.0 °F -2.0 °F 3.2 °F 62% 30.77 in 10.0 mi NNW 16.1 mph 23.0 mph N/A   Partly Cloudy
11:35 AM 14.0 °F -2.0 °F 3.2 °F 62% 30.76 in 10.0 mi NNW 16.1 mph 21.9 mph N/A   Scattered Clouds
11:55 AM 14.0 °F -3.0 °F 3.2 °F 62% 30.75 in 10.0 mi NNW 18.4 mph 24.2 mph N/A   Partly Cloudy
12:15 PM 15.8 °F -0.6 °F 3.2 °F 58% 30.76 in 10.0 mi NNW 18.4 mph - N/A   Clear
12:35 PM 15.8 °F 0.3 °F 3.2 °F 58% 30.75 in 10.0 mi NNW 16.1 mph - N/A   Clear
12:55 PM 15.8 °F -0.6 °F 3.2 °F 58% 30.76 in 10.0 mi NNW 18.4 mph 24.2 mph N/A   Partly Cloudy
1:15 PM 15.8 °F -0.2 °F 3.2 °F 58% 30.76 in 10.0 mi NNW 17.3 mph 24.2 mph N/A   Clear
1:35 PM 15.8 °F -1.1 °F 3.2 °F 58% 30.76 in 10.0 mi NNW 19.6 mph - N/A   Clear
1:55 PM 15.8 °F 0.9 °F 3.2 °F 58% 30.76 in 10.0 mi NW 15.0 mph 21.9 mph N/A   Clear
2:15 PM 15.8 °F -0.2 °F 3.2 °F 58% 30.76 in 10.0 mi NW 17.3 mph - N/A   Clear
2:35 PM 15.8 °F 1.4 °F 3.2 °F 58% 30.75 in 10.0 mi NNW 13.8 mph 21.9 mph N/A   Clear
2:55 PM 15.8 °F 1.4 °F 3.2 °F 58% 30.75 in 10.0 mi NW 13.8 mph 20.7 mph N/A   Clear
3:15 PM 15.8 °F 0.9 °F 3.2 °F 58% 30.75 in 10.0 mi NNW 15.0 mph - N/A   Clear
3:35 PM 15.8 °F 0.9 °F 3.2 °F 58% 30.76 in 10.0 mi NW 15.0 mph - N/A   Clear
3:55 PM 15.8 °F 3.4 °F 3.2 °F 58% 30.76 in 10.0 mi NNW 10.4 mph 16.1 mph N/A   Clear
4:15 PM 15.8 °F 3.4 °F 3.2 °F 58% 30.76 in 10.0 mi NW 10.4 mph 17.3 mph N/A   Clear
4:35 PM 15.8 °F 3.4 °F 1.4 °F 53% 30.76 in 10.0 mi NNW 10.4 mph - N/A   Clear
4:55 PM 14.0 °F 2.9 °F 3.2 °F 62% 30.76 in 10.0 mi NW 8.1 mph - N/A   Clear
5:15 PM 12.2 °F 1.7 °F 3.2 °F 67% 30.76 in 10.0 mi NW 6.9 mph - N/A   Clear
5:35 PM 12.2 °F 1.7 °F 1.4 °F 62% 30.76 in 10.0 mi WNW 6.9 mph - N/A   Clear
5:55 PM 12.2 °F 2.9 °F 1.4 °F 62% 30.76 in 10.0 mi NW 5.8 mph - N/A   Clear
6:15 PM 10.4 °F 0.8 °F 1.4 °F 67% 30.76 in 10.0 mi WNW 5.8 mph - N/A   Clear
6:35 PM 8.6 °F -2.6 °F 1.4 °F 73% 30.75 in 10.0 mi West 6.9 mph - N/A   Clear
6:55 PM 10.4 °F -1.5 °F 1.4 °F 67% 30.74 in 10.0 mi NW 8.1 mph - N/A   Clear
7:15 PM 8.6 °F -1.3 °F 1.4 °F 73% 30.75 in 10.0 mi WNW 5.8 mph - N/A   Clear
7:35 PM 8.6 °F -1.3 °F 1.4 °F 73% 30.74 in 10.0 mi NW 5.8 mph - N/A   Clear
7:55 PM 8.6 °F -2.6 °F 1.4 °F 73% 30.74 in 10.0 mi NW 6.9 mph - N/A   Clear
8:15 PM 8.6 °F -2.6 °F 1.4 °F 73% 30.74 in 10.0 mi West 6.9 mph - N/A   Clear
8:35 PM 8.6 °F -2.6 °F 1.4 °F 73% 30.73 in 10.0 mi NW 6.9 mph - N/A   Clear
8:55 PM 6.8 °F -4.8 °F -0.4 °F 72% 30.73 in 10.0 mi WSW 6.9 mph - N/A   Clear
9:15 PM 6.8 °F -4.8 °F -0.4 °F 72% 30.74 in 10.0 mi WNW 6.9 mph - N/A   Clear
9:35 PM 6.8 °F -2.0 °F -0.4 °F 72% 30.74 in 10.0 mi West 4.6 mph - N/A   Clear
9:55 PM 6.8 °F - -0.4 °F 72% 30.73 in 10.0 mi Calm Calm - N/A   Clear
10:15 PM 5.0 °F -4.1 °F -2.2 °F 72% 30.73 in 10.0 mi West 4.6 mph - N/A   Clear
10:35 PM 5.0 °F -6.9 °F -0.4 °F 78% 30.73 in 10.0 mi West 6.9 mph - N/A   Clear
10:55 PM 5.0 °F -8.1 °F -0.4 °F 78% 30.73 in 10.0 mi West 8.1 mph - N/A   Clear
11:15 PM 5.0 °F -6.9 °F -0.4 °F 78% 30.73 in 10.0 mi West 6.9 mph - N/A   Clear
11:35 PM 5.0 °F -2.1 °F -0.4 °F 78% 30.72 in 10.0 mi West 3.5 mph - N/A   Clear
11:55 PM 5.0 °F -4.1 °F -0.4 °F 78% 30.71 in 10.0 mi West 4.6 mph - N/A   Clear